Time;durP1;ratioP1;P1;durP2;ratioP2;P2;SDS_P1;SDS_P2;PMS_P1;PMS_P2;Temp;Humidity;BMP_temperature;BMP_pressure;BME280_temperature;BME280_humidity;BME280_pressure;Samples;Min_cycle;Max_cycle;Signal;HPM_P1;HPM_P2
2023/05/21 00:01:41;;;;;;;59.55;25.92;;;;;;;19.31;64.64;99570.16;5002801;28;20054;-89
2023/05/21 00:04:08;;;;;;;60.53;26.90;;;;;;;19.35;64.45;99575.97;4995429;28;20483;-89
2023/05/21 00:06:35;;;;;;;57.35;24.38;;;;;;;19.38;64.22;99568.28;4987943;28;20041;-89
2023/05/21 00:09:03;;;;;;;51.28;24.70;;;;;;;19.42;64.15;99576.81;5005570;28;20124;-89
2023/05/21 00:11:30;;;;;;;57.47;25.45;;;;;;;19.42;64.10;99572.25;5025282;28;20041;-89
2023/05/21 00:13:57;;;;;;;55.03;24.35;;;;;;;19.43;63.86;99573.91;5024850;28;20716;-89
2023/05/21 00:16:24;;;;;;;57.83;25.67;;;;;;;19.50;63.83;99572.09;4996178;28;20260;-88
2023/05/21 00:18:53;;;;;;;53.38;24.52;;;;;;;19.47;64.20;99572.50;5011527;28;20549;-89
2023/05/21 00:21:24;;;;;;;50.90;23.98;;;;;;;19.51;63.92;99557.63;5011657;28;20041;-90
2023/05/21 00:23:55;;;;;;;56.83;25.05;;;;;;;19.55;63.68;99562.59;5012127;28;20045;-89
2023/05/21 00:26:25;;;;;;;56.63;25.70;;;;;;;19.58;63.82;99562.19;5011728;28;20404;-89
2023/05/21 00:28:56;;;;;;;54.58;24.90;;;;;;;19.60;63.79;99560.13;5006027;28;20061;-89
2023/05/21 00:31:22;;;;;;;50.92;23.95;;;;;;;19.62;63.69;99564.28;5024648;28;20049;-89
2023/05/21 00:33:49;;;;;;;58.47;24.98;;;;;;;19.59;63.81;99545.84;5025524;28;20111;-89
2023/05/21 00:36:16;;;;;;;57.47;24.50;;;;;;;19.65;63.78;99557.66;5021531;28;20040;-89
2023/05/21 00:38:44;;;;;;;54.83;23.63;;;;;;;19.55;63.76;99544.56;4996374;28;20065;-89
2023/05/21 00:41:11;;;;;;;53.55;25.52;;;;;;;19.57;63.77;99547.06;5008554;28;20119;-89
2023/05/21 00:43:40;;;;;;;56.60;23.65;;;;;;;19.60;63.79;99538.56;5016640;28;20057;-89
2023/05/21 00:46:15;;;;;;;55.22;24.50;;;;;;;19.60;63.64;99547.47;4995594;28;20058;-90
2023/05/21 00:48:43;;;;;;;61.58;26.90;;;;;;;19.62;63.41;99547.28;5031869;28;20049;-89
2023/05/21 00:51:15;;;;;;;47.13;23.65;;;;;;;19.59;63.65;99544.97;5011485;28;20128;-88
2023/05/21 00:53:43;;;;;;;58.38;24.25;;;;;;;19.59;63.52;99539.59;5025182;28;20098;-88
2023/05/21 00:56:10;;;;;;;55.53;25.08;;;;;;;19.56;63.75;99540.81;5010315;28;20118;-90
2023/05/21 00:58:38;;;;;;;57.85;25.33;;;;;;;19.55;64.08;99536.47;5012414;28;20041;-89
2023/05/21 01:01:05;;;;;;;48.30;23.85;;;;;;;19.53;64.20;99535.84;4995322;28;20044;-89
2023/05/21 01:03:37;;;;;;;56.13;24.45;;;;;;;19.55;63.91;99535.66;5010284;28;20052;-90
2023/05/21 01:06:05;;;;;;;56.80;25.15;;;;;;;19.51;64.18;99529.81;4994867;28;20492;-89
2023/05/21 01:08:33;;;;;;;54.30;24.85;;;;;;;19.50;64.18;99531.69;5008924;28;20490;-89
2023/05/21 01:11:01;;;;;;;52.83;24.60;;;;;;;19.51;64.22;99535.22;5024493;28;20492;-89
2023/05/21 01:13:28;;;;;;;63.63;25.38;;;;;;;19.49;64.39;99534.59;5009860;28;20114;-90
2023/05/21 01:15:57;;;;;;;56.30;26.45;;;;;;;19.46;64.29;99527.75;4985366;28;20094;-89
2023/05/21 01:18:25;;;;;;;58.97;25.02;;;;;;;19.43;64.47;99528.13;4995128;28;20055;-89
2023/05/21 01:20:52;;;;;;;57.13;24.92;;;;;;;19.40;64.46;99527.72;5009770;28;20404;-89
2023/05/21 01:23:19;;;;;;;54.75;26.05;;;;;;;19.40;64.22;99519.66;5009349;28;20049;-89
2023/05/21 01:25:46;;;;;;;58.03;25.20;;;;;;;19.40;64.53;99519.66;5001217;28;20041;-89
2023/05/21 01:28:13;;;;;;;56.88;26.10;;;;;;;19.38;64.49;99525.22;4992267;28;20132;-90
2023/05/21 01:30:41;;;;;;;57.83;25.58;;;;;;;19.38;64.60;99519.00;4980593;28;20041;-90
2023/05/21 01:33:25;;;;;;;58.90;25.52;;;;;;;19.27;64.70;99518.56;4996063;28;20053;-90
2023/05/21 01:35:55;;;;;;;58.13;25.40;;;;;;;19.35;64.50;99520.25;5010530;28;20056;-89
2023/05/21 01:38:30;;;;;;;54.70;24.00;;;;;;;19.35;64.31;99522.09;5011487;28;20125;-89
2023/05/21 01:41:09;;;;;;;61.05;25.73;;;;;;;19.26;64.79;99516.91;4992108;28;20057;-89
2023/05/21 01:43:38;;;;;;;65.88;25.77;;;;;;;19.30;64.30;99520.84;5022344;28;20509;-89
2023/05/21 01:46:06;;;;;;;58.60;25.90;;;;;;;19.31;64.37;99521.69;4991470;28;20094;-89
2023/05/21 01:48:35;;;;;;;59.03;25.25;;;;;;;19.26;64.82;99519.59;5008009;28;20459;-89
2023/05/21 01:51:04;;;;;;;62.00;25.63;;;;;;;19.29;64.51;99519.19;5011829;28;20851;-89
2023/05/21 01:53:31;;;;;;;53.75;25.17;;;;;;;19.33;64.63;99516.09;5011991;28;20049;-88
2023/05/21 01:55:58;;;;;;;59.47;26.63;;;;;;;19.35;64.63;99516.72;4995966;28;20045;-89
2023/05/21 01:58:25;;;;;;;60.35;26.13;;;;;;;19.28;64.65;99520.22;5035564;28;20106;-89
2023/05/21 02:00:52;;;;;;;63.30;26.23;;;;;;;19.30;64.35;99511.94;5013104;28;20514;-89
2023/05/21 02:03:19;;;;;;;51.95;24.15;;;;;;;19.33;64.51;99521.47;5007506;28;20045;-89
2023/05/21 02:05:46;;;;;;;57.80;25.42;;;;;;;19.30;64.45;99512.75;4996581;28;20056;-89
2023/05/21 02:08:18;;;;;;;56.67;26.40;;;;;;;19.28;64.51;99508.59;5025936;28;20049;-90
2023/05/21 02:10:45;;;;;;;60.70;25.77;;;;;;;19.26;64.49;99511.50;4995345;28;20069;-90
2023/05/21 02:13:12;;;;;;;52.47;24.33;;;;;;;19.20;65.08;99516.84;4997537;28;20076;-89
2023/05/21 02:15:39;;;;;;;57.50;25.05;;;;;;;19.13;64.99;99513.28;5029930;28;20079;-90
2023/05/21 02:18:05;;;;;;;62.33;26.23;;;;;;;19.21;64.51;99513.13;4998117;28;20052;-89
2023/05/21 02:20:32;;;;;;;57.45;25.80;;;;;;;19.24;64.83;99520.81;5024499;28;20037;-89
2023/05/21 02:22:59;;;;;;;59.30;25.10;;;;;;;19.17;64.82;99522.66;5000844;28;20057;-89
2023/05/21 02:25:26;;;;;;;55.42;24.95;;;;;;;19.20;64.62;99511.47;5010194;28;20049;-90
2023/05/21 02:27:55;;;;;;;57.75;25.30;;;;;;;19.19;64.83;99507.97;4993439;28;20127;-89
2023/05/21 02:30:22;;;;;;;58.22;26.27;;;;;;;19.19;64.90;99502.56;5024063;28;20045;-90
2023/05/21 02:32:49;;;;;;;55.97;24.83;;;;;;;19.20;65.04;99508.78;5025317;28;20060;-90
2023/05/21 02:35:16;;;;;;;58.17;24.88;;;;;;;19.19;64.72;99504.44;5009585;28;20370;-89
2023/05/21 02:37:43;;;;;;;65.82;25.75;;;;;;;19.19;64.70;99504.44;5008350;28;20040;-90
2023/05/21 02:40:10;;;;;;;50.95;24.60;;;;;;;19.17;64.67;99510.00;5005524;28;20041;-90
2023/05/21 02:42:40;;;;;;;55.58;24.95;;;;;;;19.19;64.97;99499.88;5024872;28;20063;-90
2023/05/21 02:45:11;;;;;;;59.50;25.77;;;;;;;19.22;64.86;99507.56;5007081;28;20051;-89
2023/05/21 02:47:40;;;;;;;52.60;25.60;;;;;;;19.21;64.58;99508.59;5029606;28;20064;-89
2023/05/21 02:50:08;;;;;;;57.88;27.58;;;;;;;19.17;64.94;99506.50;5009429;28;20065;-90
2023/05/21 02:52:42;;;;;;;56.47;23.80;;;;;;;19.16;64.84;99512.88;5005074;28;20102;-89
2023/05/21 02:55:09;;;;;;;54.05;24.08;;;;;;;19.15;64.89;99508.53;4987852;28;20049;-89
2023/05/21 02:57:36;;;;;;;62.10;25.95;;;;;;;19.13;64.92;99500.66;5006268;28;20052;-89
2023/05/21 03:00:04;;;;;;;59.72;24.90;;;;;;;19.17;64.87;99506.50;5011076;28;20511;-90
2023/05/21 03:02:32;;;;;;;57.80;25.17;;;;;;;19.13;65.19;99506.03;5003092;28;20052;-89
2023/05/21 03:04:59;;;;;;;51.50;24.65;;;;;;;19.14;64.92;99513.09;5007567;28;20083;-89
2023/05/21 03:07:26;;;;;;;63.10;25.05;;;;;;;19.08;65.18;99505.81;5009450;28;20072;-89
2023/05/21 03:09:53;;;;;;;56.38;24.20;;;;;;;19.12;65.20;99504.41;5009419;28;20056;-89
2023/05/21 03:12:20;;;;;;;57.97;25.65;;;;;;;19.08;65.32;99503.13;5016753;28;20120;-89
2023/05/21 03:14:50;;;;;;;68.05;26.85;;;;;;;19.05;65.09;99501.66;4997849;28;20520;-89
2023/05/21 03:17:19;;;;;;;59.90;26.05;;;;;;;19.09;65.05;99499.41;5023681;28;20069;-89
2023/05/21 03:19:47;;;;;;;59.25;24.45;;;;;;;19.02;65.15;99502.06;4994464;28;20040;-89
2023/05/21 03:22:15;;;;;;;52.72;23.90;;;;;;;19.08;65.10;99497.75;4992368;28;20128;-89
2023/05/21 03:24:43;;;;;;;55.92;24.73;;;;;;;19.01;65.56;99505.78;4994248;28;20049;-89
2023/05/21 03:27:11;;;;;;;51.65;24.20;;;;;;;18.96;65.34;99496.66;5016550;28;20500;-89
2023/05/21 03:29:38;;;;;;;56.60;24.05;;;;;;;18.97;65.45;99501.81;5007196;28;20118;-89
2023/05/21 03:32:06;;;;;;;57.80;23.92;;;;;;;18.98;65.38;99495.44;4996555;28;20049;-89
2023/05/21 03:34:34;;;;;;;55.90;24.50;;;;;;;18.99;65.42;99505.16;5006911;28;20521;-89
2023/05/21 03:37:01;;;;;;;55.38;23.80;;;;;;;19.00;65.35;99493.34;4996831;28;20118;-89
2023/05/21 03:39:30;;;;;;;60.33;24.05;;;;;;;18.97;65.35;99492.94;5001247;28;20056;-89
2023/05/21 03:41:57;;;;;;;62.17;24.42;;;;;;;19.00;65.27;99497.91;5004201;28;20124;-89
2023/05/21 03:44:40;;;;;;;58.58;23.25;;;;;;;18.95;65.28;99498.50;4980959;28;20385;-89
2023/05/21 03:47:26;;;;;;;55.58;23.88;;;;;;;19.00;65.45;99497.91;5033571;28;20435;-88
2023/05/21 03:49:53;;;;;;;56.20;24.48;;;;;;;18.95;65.78;99498.50;5013128;28;20400;-89
2023/05/21 03:52:20;;;;;;;55.55;25.42;;;;;;;18.91;65.45;99494.56;5007142;28;20045;-89
2023/05/21 03:54:47;;;;;;;51.80;23.98;;;;;;;18.91;65.79;99497.25;4993704;28;20052;-89
2023/05/21 03:57:14;;;;;;;56.05;24.30;;;;;;;18.94;65.53;99504.09;5011299;28;20095;-89
2023/05/21 03:59:42;;;;;;;58.83;25.00;;;;;;;18.95;65.47;99500.38;5031402;28;20049;-90
2023/05/21 04:02:09;;;;;;;56.95;24.58;;;;;;;18.92;65.91;99503.47;5010527;28;20095;-90
2023/05/21 04:04:36;;;;;;;61.60;25.40;;;;;;;18.89;65.67;99495.78;4995505;28;20048;-89
2023/05/21 04:07:04;;;;;;;55.78;24.33;;;;;;;18.92;65.76;99503.47;5012286;28;20052;-89
2023/05/21 04:09:30;;;;;;;55.35;22.92;;;;;;;18.87;65.84;99502.19;5010383;28;20053;-89
2023/05/21 04:11:57;;;;;;;53.92;23.77;;;;;;;18.89;65.85;99504.69;5011591;28;20044;-90
2023/05/21 04:14:24;;;;;;;57.30;23.73;;;;;;;18.86;66.02;99502.41;5028835;28;20048;-89
2023/05/21 04:16:51;;;;;;;61.47;25.02;;;;;;;18.84;65.96;99504.44;5009723;28;20053;-88
2023/05/21 04:19:19;;;;;;;57.00;24.30;;;;;;;18.81;66.14;99519.13;5014122;28;20132;-89
2023/05/21 04:21:47;;;;;;;57.50;24.85;;;;;;;18.80;66.25;99508.53;4996559;28;20065;-89
2023/05/21 04:24:15;;;;;;;53.20;24.05;;;;;;;18.83;66.25;99513.56;5013173;28;20059;-89
2023/05/21 04:26:59;;;;;;;54.50;23.58;;;;;;;18.85;66.22;99519.53;5010885;28;20110;-89
2023/05/21 04:29:30;;;;;;;55.25;25.23;;;;;;;18.83;66.15;99524.31;4999304;28;20053;-90
2023/05/21 04:31:57;;;;;;;65.25;26.63;;;;;;;18.70;66.49;99516.97;4985073;28;20072;-90
2023/05/21 04:34:24;;;;;;;59.40;24.45;;;;;;;18.81;66.02;99520.97;5028634;28;20576;-89
2023/05/21 04:36:51;;;;;;;54.22;24.58;;;;;;;18.81;66.26;99524.50;5004551;28;20043;-89
2023/05/21 04:39:18;;;;;;;53.72;22.77;;;;;;;18.83;66.09;99525.13;5031199;28;20052;-89
2023/05/21 04:41:45;;;;;;;62.03;24.73;;;;;;;18.88;65.87;99535.31;5013129;28;20071;-89
2023/05/21 04:44:13;;;;;;;54.78;23.90;;;;;;;18.88;66.23;99540.69;4989994;28;20040;-89
2023/05/21 04:46:44;;;;;;;55.72;23.35;;;;;;;18.91;66.04;99528.72;4991149;28;20507;-89
2023/05/21 04:49:12;;;;;;;53.75;24.83;;;;;;;18.89;66.05;99533.44;5027765;28;20049;-89
2023/05/21 04:51:39;;;;;;;53.65;22.80;;;;;;;18.88;66.17;99524.56;5009434;28;20095;-89
2023/05/21 04:54:06;;;;;;;48.25;22.50;;;;;;;18.92;66.29;99531.19;5006499;28;20041;-90
2023/05/21 04:56:34;;;;;;;55.30;23.92;;;;;;;18.88;66.01;99535.31;5009706;28;20519;-89
2023/05/21 04:59:02;;;;;;;56.70;24.10;;;;;;;18.83;66.28;99530.53;4994463;28;20757;-90
2023/05/21 05:01:33;;;;;;;56.58;24.25;;;;;;;18.90;65.73;99529.72;5011362;28;20553;-90
2023/05/21 05:04:01;;;;;;;52.20;23.00;;;;;;;18.92;65.86;99531.19;5010963;28;20053;-89
2023/05/21 05:06:28;;;;;;;56.72;24.13;;;;;;;18.87;65.86;99529.09;5025439;28;20052;-89
2023/05/21 05:08:55;;;;;;;52.58;23.65;;;;;;;18.93;65.83;99535.56;5028203;28;20049;-89
2023/05/21 05:11:22;;;;;;;49.28;23.38;;;;;;;18.97;65.81;99539.50;4992942;28;20051;-88
2023/05/21 05:13:49;;;;;;;53.47;23.33;;;;;;;18.96;65.76;99534.34;5010341;28;20460;-89
2023/05/21 05:16:23;;;;;;;60.20;25.05;;;;;;;18.98;65.74;99529.56;5011264;28;20044;-89
2023/05/21 05:18:51;;;;;;;51.97;24.08;;;;;;;18.97;65.61;99535.97;4984320;28;20135;-89
2023/05/21 05:21:20;;;;;;;55.28;23.95;;;;;;;19.00;66.01;99532.88;4992156;28;20061;-90
2023/05/21 05:23:47;;;;;;;57.55;24.63;;;;;;;18.95;66.05;99541.53;5011442;28;20049;-89
2023/05/21 05:26:14;;;;;;;55.08;23.80;;;;;;;19.01;65.97;99539.94;4995765;28;20543;-89
2023/05/21 05:28:41;;;;;;;53.15;24.05;;;;;;;19.04;65.85;99534.16;5009640;28;20500;-90
2023/05/21 05:31:08;;;;;;;51.95;22.70;;;;;;;19.03;65.51;99537.88;4995343;28;20041;-90
2023/05/21 05:33:35;;;;;;;55.28;24.90;;;;;;;19.00;65.46;99540.97;4995857;28;20048;-90
2023/05/21 05:36:02;;;;;;;60.42;22.95;;;;;;;19.02;65.80;99531.66;4994117;28;20052;-90
2023/05/21 05:38:30;;;;;;;60.05;23.90;;;;;;;19.05;65.71;99538.50;5007034;28;20615;-90
2023/05/21 05:40:56;;;;;;;54.05;25.05;;;;;;;19.05;65.70;99530.44;4993891;28;20045;-90
2023/05/21 05:43:25;;;;;;;53.45;24.10;;;;;;;19.06;66.02;99530.25;5011035;28;20045;-89
2023/05/21 05:45:52;;;;;;;52.88;23.10;;;;;;;19.10;66.15;99538.75;4994034;28;20061;-90
2023/05/21 05:48:19;;;;;;;57.72;24.67;;;;;;;19.11;65.89;99528.81;4991494;28;20084;-88
2023/05/21 05:50:46;;;;;;;52.47;22.65;;;;;;;19.06;65.92;99532.13;4990561;28;20519;-91
2023/05/21 05:53:14;;;;;;;48.75;22.05;;;;;;;19.15;66.38;99522.00;4992227;28;20514;-89
2023/05/21 05:55:41;;;;;;;56.08;24.13;;;;;;;19.21;66.70;99530.13;4997677;28;20057;-89
2023/05/21 05:58:08;;;;;;;53.85;24.00;;;;;;;19.19;65.85;99525.97;4994727;28;20049;-90
2023/05/21 06:00:47;;;;;;;50.58;21.88;;;;;;;19.17;66.00;99534.25;5011184;28;20040;-90
2023/05/21 06:03:14;;;;;;;52.65;23.45;;;;;;;19.27;66.44;99531.19;5009609;28;20063;-90
2023/05/21 06:05:42;;;;;;;52.75;22.70;;;;;;;19.29;66.39;99538.03;5030025;28;20041;-90
2023/05/21 06:08:09;;;;;;;46.97;22.33;;;;;;;19.37;66.03;99528.13;4994039;28;20051;-90
2023/05/21 06:10:36;;;;;;;54.17;23.40;;;;;;;19.44;66.50;99531.69;5009193;28;20075;-90
2023/05/21 06:13:03;;;;;;;60.90;24.20;;;;;;;19.48;65.86;99536.44;5006537;28;20127;-90
2023/05/21 06:15:30;;;;;;;53.10;23.80;;;;;;;19.45;65.71;99526.09;4990798;28;20045;-90
2023/05/21 06:17:57;;;;;;;50.70;22.75;;;;;;;19.48;66.00;99531.06;5000258;28;20106;-90
2023/05/21 06:20:23;;;;;;;52.22;22.83;;;;;;;19.44;65.68;99529.81;4990649;28;20052;-89
2023/05/21 06:22:52;;;;;;;52.08;22.98;;;;;;;19.49;65.43;99521.97;5007981;28;20041;-89
2023/05/21 06:25:19;;;;;;;50.00;22.90;;;;;;;19.47;65.70;99524.03;5009578;28;20045;-84
2023/05/21 06:27:46;;;;;;;52.75;23.80;;;;;;;19.47;65.60;99523.19;5031904;28;20068;-85
2023/05/21 06:30:18;;;;;;;50.65;22.73;;;;;;;19.48;65.65;99527.53;5009966;28;20063;-85
2023/05/21 06:32:45;;;;;;;49.45;22.00;;;;;;;19.53;65.88;99512.44;5008916;28;20041;-85
2023/05/21 06:35:13;;;;;;;51.90;22.77;;;;;;;19.56;65.71;99518.47;5013355;28;20144;-85
2023/05/21 06:37:41;;;;;;;53.58;24.63;;;;;;;19.49;65.77;99529.22;5011164;28;20041;-85
2023/05/21 06:40:09;;;;;;;50.55;24.05;;;;;;;19.49;65.84;99538.13;5011541;28;20047;-85
2023/05/21 06:42:36;;;;;;;50.03;22.20;;;;;;;19.50;65.69;99520.94;4995601;28;20506;-85
2023/05/21 06:45:35;;;;;;;50.45;22.98;;;;;;;19.58;65.70;99524.47;4969346;28;20045;-85
2023/05/21 06:48:23;;;;;;;51.05;22.88;;;;;;;19.59;65.79;99521.59;5039684;28;20063;-85
2023/05/21 06:50:50;;;;;;;50.75;23.17;;;;;;;19.58;66.00;99522.59;4999992;28;20352;-85
2023/05/21 06:53:17;;;;;;;48.20;23.58;;;;;;;19.63;65.92;99530.91;5043065;28;20500;-85
2023/05/21 06:55:44;;;;;;;47.63;22.02;;;;;;;19.68;66.12;99530.34;5015478;28;20041;-84
2023/05/21 06:58:21;;;;;;;57.60;23.80;;;;;;;19.76;65.92;99534.72;5021133;28;20044;-86
2023/05/21 07:00:48;;;;;;;56.05;23.60;;;;;;;19.79;65.26;99526.22;5007486;28;20129;-86
2023/05/21 07:03:15;;;;;;;58.92;24.63;;;;;;;19.78;65.54;99535.34;5007257;28;20064;-86
2023/05/21 07:05:42;;;;;;;49.55;22.55;;;;;;;19.77;65.11;99520.19;5009661;28;20033;-86
2023/05/21 07:08:09;;;;;;;45.92;22.67;;;;;;;19.79;65.28;99527.06;4967438;28;20042;-85
2023/05/21 07:10:38;;;;;;;48.67;23.27;;;;;;;19.82;65.44;99525.81;4973382;28;20041;-86
2023/05/21 07:13:04;;;;;;;52.25;23.52;;;;;;;19.82;65.97;99528.50;4996092;28;20072;-86
2023/05/21 07:15:31;;;;;;;49.80;23.42;;;;;;;19.85;65.60;99528.13;4994258;28;20139;-86
2023/05/21 07:18:01;;;;;;;53.00;23.35;;;;;;;19.85;65.69;99520.88;5025755;28;20044;-86
2023/05/21 07:20:28;;;;;;;47.55;22.65;;;;;;;19.90;65.48;99522.94;5010293;28;20053;-86
2023/05/21 07:22:58;;;;;;;56.15;24.23;;;;;;;19.99;65.26;99528.97;5003422;28;20061;-86
2023/05/21 07:25:24;;;;;;;44.40;22.15;;;;;;;19.98;65.34;99527.31;5027357;28;20094;-84
2023/05/21 07:27:51;;;;;;;47.92;23.25;;;;;;;20.00;65.61;99526.09;4997877;28;20045;-84
2023/05/21 07:30:19;;;;;;;52.05;22.92;;;;;;;20.05;65.32;99529.00;5024331;28;20053;-84
2023/05/21 07:32:46;;;;;;;47.55;21.92;;;;;;;20.06;65.70;99529.81;5025873;28;20040;-84
2023/05/21 07:35:13;;;;;;;49.80;22.60;;;;;;;20.15;65.46;99520.50;5010429;28;20048;-84
2023/05/21 07:37:40;;;;;;;51.88;23.17;;;;;;;20.22;65.35;99523.19;5026933;28;21470;-84
2023/05/21 07:40:08;;;;;;;50.67;22.25;;;;;;;20.27;65.51;99513.44;5009691;28;20132;-84
2023/05/21 07:42:36;;;;;;;48.60;23.20;;;;;;;20.33;65.28;99517.22;5000812;28;20051;-84
2023/05/21 07:45:03;;;;;;;46.90;21.80;;;;;;;20.36;64.54;99520.31;5010456;28;20045;-84
2023/05/21 07:47:35;;;;;;;49.53;22.37;;;;;;;20.38;64.58;99515.53;5031408;28;20098;-84
2023/05/21 07:50:02;;;;;;;46.85;21.58;;;;;;;20.42;64.38;99507.84;5013908;28;20539;-85
2023/05/21 07:52:29;;;;;;;48.75;21.38;;;;;;;20.48;64.45;99514.28;5026888;28;20055;-86
2023/05/21 07:54:55;;;;;;;42.80;21.02;;;;;;;20.55;64.09;99513.28;5025538;28;20049;-84
2023/05/21 07:57:24;;;;;;;44.20;20.20;;;;;;;20.60;63.24;99526.13;5027589;28;20041;-85
2023/05/21 07:59:58;;;;;;;44.58;22.02;;;;;;;20.56;62.31;99514.94;4975617;28;20123;-85
2023/05/21 08:02:25;;;;;;;48.60;20.77;;;;;;;20.63;62.46;99523.00;4993630;28;20056;-85
2023/05/21 08:04:53;;;;;;;39.63;19.83;;;;;;;20.65;62.74;99509.34;4985058;28;20369;-84
2023/05/21 08:07:20;;;;;;;42.97;19.65;;;;;;;20.72;63.00;99513.69;5009277;28;20124;-85
2023/05/21 08:09:47;;;;;;;51.63;19.92;;;;;;;20.77;62.41;99511.19;4973810;28;20056;-85
2023/05/21 08:12:14;;;;;;;51.10;21.50;;;;;;;20.83;62.59;99512.19;4992242;28;20046;-84
2023/05/21 08:14:42;;;;;;;43.08;20.23;;;;;;;20.85;62.55;99515.53;4983919;28;20041;-84
2023/05/21 08:17:11;;;;;;;46.58;21.45;;;;;;;20.90;62.16;99512.19;5026204;28;20052;-83
2023/05/21 08:19:38;;;;;;;42.22;19.17;;;;;;;20.89;62.49;99511.38;5028646;28;20052;-84
2023/05/21 08:22:05;;;;;;;44.38;21.35;;;;;;;20.99;62.26;99502.84;5019796;28;20052;-85
2023/05/21 08:24:34;;;;;;;43.75;21.83;;;;;;;20.92;61.78;99502.03;4993474;28;20081;-85
2023/05/21 08:27:01;;;;;;;45.92;20.08;;;;;;;20.90;62.17;99494.13;4994138;28;20527;-85
2023/05/21 08:29:30;;;;;;;45.60;19.23;;;;;;;20.95;61.91;99502.44;5010162;28;20088;-84
2023/05/21 08:31:58;;;;;;;42.67;21.08;;;;;;;21.01;62.19;99507.00;5003377;28;20049;-85
2023/05/21 08:34:25;;;;;;;41.38;21.70;;;;;;;21.06;61.40;99502.81;5007513;28;20053;-85
2023/05/21 08:37:04;;;;;;;46.17;20.92;;;;;;;21.01;62.29;99504.28;5031468;28;20040;-85
2023/05/21 08:39:57;;;;;;;45.55;20.85;;;;;;;20.95;61.63;99510.53;4999613;28;20124;-85
2023/05/21 08:42:34;;;;;;;38.03;19.17;;;;;;;20.95;61.03;99513.22;5012429;28;20052;-88
2023/05/21 08:45:05;;;;;;;40.63;20.52;;;;;;;21.00;61.63;99513.41;5009073;28;20063;-84
2023/05/21 08:47:35;;;;;;;42.53;19.20;;;;;;;21.02;61.72;99502.41;5025470;28;20049;-84
2023/05/21 08:50:15;;;;;;;40.88;20.75;;;;;;;21.03;62.10;99507.59;5012948;28;20450;-84
2023/05/21 08:52:41;;;;;;;48.00;21.45;;;;;;;21.16;62.02;99508.59;4995316;28;20118;-86
2023/05/21 08:55:09;;;;;;;42.28;20.90;;;;;;;21.11;62.06;99501.13;5005596;28;20755;-86
2023/05/21 08:57:41;;;;;;;45.85;21.13;;;;;;;21.12;62.33;99505.50;5008310;28;20044;-84
2023/05/21 09:00:10;;;;;;;44.88;21.58;;;;;;;21.17;62.80;99507.56;4991297;28;20072;-83
2023/05/21 09:02:42;;;;;;;43.03;20.02;;;;;;;21.19;63.26;99508.16;5010836;28;20057;-84
2023/05/21 09:05:10;;;;;;;48.73;21.67;;;;;;;21.22;62.28;99505.06;5029781;28;20044;-84
2023/05/21 09:08:10;;;;;;;42.35;21.55;;;;;;;21.10;61.88;99512.16;4994851;28;20901;-84
2023/05/21 09:10:50;;;;;;;46.67;21.90;;;;;;;21.18;61.98;99506.50;4971950;28;20075;-85
2023/05/21 09:13:20;;;;;;;45.28;21.70;;;;;;;21.19;62.28;99502.75;5016547;28;20064;-84
2023/05/21 09:15:50;;;;;;;52.72;23.13;;;;;;;21.18;62.99;99506.50;5029327;28;20136;-85
2023/05/21 09:18:18;;;;;;;46.50;22.20;;;;;;;21.19;63.11;99497.34;5005111;28;20063;-84
2023/05/21 09:20:58;;;;;;;46.35;22.40;;;;;;;21.18;62.79;99499.25;5009457;28;20095;-84
2023/05/21 09:23:27;;;;;;;45.17;19.58;;;;;;;21.22;62.67;99496.97;5012523;28;20037;-84
2023/05/21 09:25:54;;;;;;;48.00;24.50;;;;;;;21.26;62.65;99506.28;5011969;28;20069;-84
2023/05/21 09:28:26;;;;;;;;;;;;;;;21.07;63.53;99501.78;4984420;28;20052;-84
2023/05/21 09:30:53;;;;;;;45.60;19.05;;;;;;;21.23;63.13;99496.72;5009667;28;20326;-84
2023/05/21 09:33:26;;;;;;;46.28;20.20;;;;;;;21.29;61.57;99499.63;5007900;28;20045;-84
2023/05/21 09:35:53;;;;;;;46.28;22.75;;;;;;;21.29;61.60;99505.03;5011030;28;20098;-84
2023/05/21 09:38:24;;;;;;;40.55;20.05;;;;;;;21.32;61.80;99496.47;4996978;28;20537;-84
2023/05/21 09:40:53;;;;;;;40.75;20.30;;;;;;;21.37;62.06;99494.81;5016997;28;20068;-84
2023/05/21 09:43:21;;;;;;;47.65;20.83;;;;;;;21.40;61.25;99499.00;4993574;28;21158;-84
2023/05/21 09:45:55;;;;;;;40.05;20.85;;;;;;;21.41;61.21;99487.97;5023575;28;20052;-84
2023/05/21 09:48:41;;;;;;;36.80;19.35;;;;;;;21.37;60.28;99513.72;5010982;28;20041;-84
2023/05/21 09:51:17;;;;;;;37.17;19.10;;;;;;;21.41;60.24;99504.16;5006268;28;20072;-84
2023/05/21 09:53:48;;;;;;;41.17;19.30;;;;;;;21.45;60.53;99502.72;5010198;28;20068;-84
2023/05/21 09:56:17;;;;;;;39.17;19.23;;;;;;;21.52;60.15;99504.53;4991259;28;20045;-84
2023/05/21 09:58:45;;;;;;;42.55;20.25;;;;;;;21.57;60.45;99496.63;4999329;28;20127;-84
2023/05/21 10:01:12;;;;;;;37.10;18.50;;;;;;;21.59;60.89;99506.16;5012785;28;20069;-84
2023/05/21 10:03:39;;;;;;;36.78;18.08;;;;;;;21.63;60.57;99499.28;5018063;28;20061;-85
2023/05/21 10:06:10;;;;;;;38.78;19.42;;;;;;;21.62;60.54;99499.50;5020916;28;20045;-85
2023/05/21 10:08:42;;;;;;;39.97;18.70;;;;;;;21.65;60.80;99505.31;5007421;28;20489;-85
2023/05/21 10:11:09;;;;;;;28.77;16.80;;;;;;;21.70;60.34;99503.81;4986403;28;20045;-84
2023/05/21 10:13:38;;;;;;;32.47;16.58;;;;;;;21.72;59.30;99493.63;4993816;28;20045;-85
2023/05/21 10:16:06;;;;;;;32.28;17.58;;;;;;;21.73;58.89;99492.56;4994370;28;20055;-85
2023/05/21 10:18:48;;;;;;;33.67;15.85;;;;;;;21.71;58.16;99494.69;4996788;28;20055;-85
2023/05/21 10:21:15;;;;;;;33.70;16.30;;;;;;;21.78;59.17;99496.31;5023749;28;20051;-84
2023/05/21 10:23:42;;;;;;;32.78;17.90;;;;;;;21.82;59.67;99489.41;5010131;28;20571;-85
2023/05/21 10:26:10;;;;;;;36.22;17.17;;;;;;;21.86;59.05;99490.63;5008411;28;20040;-84
2023/05/21 10:28:36;;;;;;;34.38;17.75;;;;;;;21.91;57.83;99489.16;4984102;28;20045;-84
2023/05/21 10:31:03;;;;;;;31.02;16.60;;;;;;;21.95;57.85;99493.06;4979742;28;20694;-85
2023/05/21 10:33:30;;;;;;;30.13;15.65;;;;;;;21.98;57.95;99496.19;5001497;28;20468;-85
2023/05/21 10:35:58;;;;;;;34.70;16.73;;;;;;;22.01;57.60;99490.34;4993390;28;20083;-84
2023/05/21 10:38:26;;;;;;;32.05;15.98;;;;;;;22.04;57.30;99491.78;5041872;28;20064;-85
2023/05/21 10:40:54;;;;;;;37.33;16.33;;;;;;;22.05;56.38;99494.22;4989570;28;20120;-85
2023/05/21 10:44:02;;;;;;;31.23;15.70;;;;;;;21.97;54.76;99490.97;5037899;28;20094;-85
2023/05/21 10:46:51;;;;;;;32.53;15.45;;;;;;;22.07;55.74;99491.31;4953542;28;20048;-85
2023/05/21 10:49:37;;;;;;;36.05;18.40;;;;;;;22.02;55.09;99485.75;5024583;28;20064;-85
2023/05/21 10:52:19;;;;;;;33.47;18.40;;;;;;;22.08;56.15;99487.56;5035867;28;20123;-85
2023/05/21 10:55:40;;;;;;;37.80;17.27;;;;;;;22.09;54.90;99486.53;5016508;28;20041;-85
2023/05/21 10:58:30;;;;;;;39.70;18.30;;;;;;;22.09;54.36;99481.94;4944799;28;20508;-85
2023/05/21 11:00:58;;;;;;;31.52;17.90;;;;;;;22.18;55.16;99474.38;5015587;28;20044;-85
2023/05/21 11:03:25;;;;;;;32.22;15.48;;;;;;;22.18;55.05;99478.97;5003730;28;20048;-85
2023/05/21 11:05:55;;;;;;;33.55;16.70;;;;;;;22.22;54.69;99478.34;5025183;28;20712;-85
2023/05/21 11:08:34;;;;;;;33.70;16.65;;;;;;;22.25;55.09;99483.31;5024102;28;20135;-85
2023/05/21 11:11:02;;;;;;;36.05;17.58;;;;;;;22.27;54.21;99481.22;5024824;28;20037;-85
2023/05/21 11:13:49;;;;;;;32.22;16.48;;;;;;;22.19;53.81;99484.19;5022929;28;20098;-85
2023/05/21 11:16:16;;;;;;;36.80;17.80;;;;;;;22.34;55.17;99481.16;4996153;28;20103;-85
2023/05/21 11:18:46;;;;;;;32.88;17.80;;;;;;;22.31;54.66;99477.03;5022743;28;20071;-85
2023/05/21 11:21:17;;;;;;;31.02;16.20;;;;;;;22.40;53.73;99479.44;5006328;28;20040;-85
2023/05/21 11:23:51;;;;;;;28.80;15.77;;;;;;;22.38;53.98;99476.97;5008051;28;20542;-85
2023/05/21 11:26:19;;;;;;;29.98;16.50;;;;;;;22.47;54.63;99472.94;5013208;28;20136;-84
2023/05/21 11:28:49;;;;;;;32.00;15.70;;;;;;;22.51;54.61;99468.72;5015257;28;20049;-85